Time;durP1;ratioP1;P1;durP2;ratioP2;P2;SDS_P1;SDS_P2;PMS_P1;PMS_P2;Temp;Humidity;BMP_temperature;BMP_pressure;BME280_temperature;BME280_humidity;BME280_pressure;Samples;Min_cycle;Max_cycle;Signal;HPM_P1;HPM_P2
2023/08/22 00:00:44;;;;;;;6.67;6.00;;;;;;;26.02;73.07;158065.31;5049409;28;20959;-79
2023/08/22 00:03:10;;;;;;;7.80;6.43;;;;;;;26.03;73.62;158069.22;5047582;28;20446;-79
2023/08/22 00:05:37;;;;;;;6.77;6.07;;;;;;;25.99;73.40;158058.75;5015001;28;20977;-78
2023/08/22 00:08:05;;;;;;;7.30;6.70;;;;;;;25.99;73.55;158057.44;5021253;28;20453;-78
2023/08/22 00:10:33;;;;;;;7.10;6.40;;;;;;;25.98;74.14;158054.81;5056028;28;20851;-79
2023/08/22 00:12:59;;;;;;;7.90;7.10;;;;;;;25.89;74.79;158031.25;5060008;28;20995;-78
2023/08/22 00:15:26;;;;;;;7.40;6.77;;;;;;;25.82;75.07;158012.91;5023125;28;20472;-78
2023/08/22 00:17:53;;;;;;;7.23;6.53;;;;;;;25.74;75.08;157991.97;5055459;28;20450;-78
2023/08/22 00:20:19;;;;;;;6.93;5.87;;;;;;;25.72;75.93;157986.72;5057916;28;20562;-78
2023/08/22 00:22:46;;;;;;;6.60;6.10;;;;;;;25.69;75.76;157978.88;5030992;28;21029;-78
2023/08/22 00:25:13;;;;;;;6.57;5.97;;;;;;;25.68;75.44;157976.28;5046703;28;20466;-78
2023/08/22 00:27:41;;;;;;;7.40;6.70;;;;;;;25.67;74.38;157973.66;5054913;28;20470;-79
2023/08/22 00:30:08;;;;;;;7.10;6.40;;;;;;;25.66;75.06;157971.00;5058187;28;20447;-88
2023/08/22 00:32:35;;;;;;;7.30;6.60;;;;;;;25.65;75.11;157968.44;5026597;28;20470;-88
2023/08/22 00:35:02;;;;;;;7.07;6.30;;;;;;;25.61;74.79;157959.25;5054374;28;20813;-86
2023/08/22 00:37:29;;;;;;;6.57;5.97;;;;;;;25.63;74.82;157964.47;5049849;28;20454;-86
2023/08/22 00:39:55;;;;;;;6.60;5.90;;;;;;;25.62;75.07;157960.56;5015461;28;20473;-86
2023/08/22 00:42:22;;;;;;;7.43;6.73;;;;;;;25.65;74.62;157968.44;5031552;28;21010;-87
2023/08/22 00:44:53;;;;;;;6.60;6.00;;;;;;;25.63;74.63;157963.19;5016995;28;20554;-87
2023/08/22 00:47:20;;;;;;;7.03;6.33;;;;;;;25.60;74.06;157955.34;5038309;28;21038;-87
2023/08/22 00:49:46;;;;;;;7.50;6.50;;;;;;;25.59;74.69;157954.03;5029519;28;20450;-86
2023/08/22 00:52:13;;;;;;;7.07;6.23;;;;;;;25.55;74.12;157943.53;5032820;28;21067;-88
2023/08/22 00:54:41;;;;;;;6.37;5.77;;;;;;;25.56;74.90;157944.84;5040745;28;20926;-87
2023/08/22 00:57:08;;;;;;;7.53;5.80;;;;;;;25.52;74.16;157935.72;5026697;28;20454;-88
2023/08/22 00:59:36;;;;;;;6.77;6.17;;;;;;;25.48;74.14;157923.91;5047543;28;20985;-87
2023/08/22 01:02:04;;;;;;;6.50;5.20;;;;;;;25.45;74.61;157917.31;5027660;28;20857;-87
2023/08/22 01:04:30;;;;;;;7.17;6.30;;;;;;;25.46;74.93;157918.63;5053707;28;20447;-86
2023/08/22 01:07:03;;;;;;;7.50;6.27;;;;;;;25.44;74.63;157916.00;5029562;28;20713;-87
2023/08/22 01:09:32;;;;;;;5.90;5.40;;;;;;;25.42;74.90;157909.44;5021005;28;20972;-87
2023/08/22 01:12:21;;;;;;;7.47;5.70;;;;;;;25.33;74.74;157887.22;5045827;28;20484;-87
2023/08/22 01:14:56;;;;;;;6.63;5.93;;;;;;;25.27;74.27;157871.53;5047629;28;20806;-86
2023/08/22 01:17:24;;;;;;;6.70;6.10;;;;;;;25.23;75.00;157861.03;5054879;28;20471;-86
2023/08/22 01:19:52;;;;;;;7.00;5.50;;;;;;;25.22;74.75;157857.13;5043048;28;20459;-86
2023/08/22 01:22:25;;;;;;;6.03;5.37;;;;;;;25.22;74.14;157858.44;5047944;28;20451;-86
2023/08/22 01:24:52;;;;;;;6.10;5.00;;;;;;;25.23;74.17;157859.75;5046816;28;20481;-86
2023/08/22 01:27:21;;;;;;;6.40;5.80;;;;;;;25.20;75.11;157853.22;5044513;28;20446;-86
2023/08/22 01:29:52;;;;;;;6.57;5.43;;;;;;;25.15;75.07;157840.09;5044305;28;20455;-86
2023/08/22 01:32:22;;;;;;;6.83;5.73;;;;;;;25.08;75.13;157820.47;5030666;28;20476;-86
2023/08/22 01:34:50;;;;;;;9.90;5.50;;;;;;;25.04;75.35;157811.34;5032366;28;20510;-86
2023/08/22 01:37:17;;;;;;;6.00;5.50;;;;;;;25.00;75.54;157800.84;5042564;28;20556;-86
2023/08/22 01:39:45;;;;;;;6.57;5.83;;;;;;;24.95;75.68;157787.75;5059843;28;20466;-86
2023/08/22 01:42:12;;;;;;;6.80;6.20;;;;;;;24.90;76.27;157774.69;5047668;28;20455;-86
2023/08/22 01:44:38;;;;;;;8.30;5.53;;;;;;;24.86;76.74;157764.19;5049810;28;20561;-86
2023/08/22 01:47:06;;;;;;;6.13;5.53;;;;;;;24.85;76.64;157760.28;5009448;28;20673;-86
2023/08/22 01:49:35;;;;;;;6.50;5.90;;;;;;;24.84;77.05;157758.97;5060880;28;20459;-86
2023/08/22 01:52:02;;;;;;;8.00;5.80;;;;;;;24.81;77.19;157751.13;5045916;28;20574;-86
2023/08/22 01:54:28;;;;;;;6.80;5.87;;;;;;;24.80;76.58;157748.53;5058724;28;20447;-86
2023/08/22 01:56:56;;;;;;;6.23;5.60;;;;;;;24.80;76.77;157748.53;5036717;28;20466;-86
2023/08/22 01:59:23;;;;;;;6.37;5.83;;;;;;;24.80;76.85;157749.84;5043481;28;20483;-86
2023/08/22 02:01:48;;;;;;;5.50;5.00;;;;;;;24.81;75.81;157752.44;5037802;28;20485;-86
2023/08/22 02:04:15;;;;;;;6.93;5.10;;;;;;;24.84;75.52;157758.97;5052873;28;21107;-86
2023/08/22 02:06:41;;;;;;;4.97;4.50;;;;;;;24.86;75.16;157762.94;5044754;28;20209;-86
2023/08/22 02:09:09;;;;;;;6.20;5.40;;;;;;;24.87;74.33;157766.84;5013035;28;20474;-86
2023/08/22 02:11:36;;;;;;;5.43;4.93;;;;;;;24.87;74.83;157766.84;5012501;28;20446;-86
2023/08/22 02:14:04;;;;;;;7.10;5.43;;;;;;;24.86;74.66;157764.19;5057558;28;20444;-86
2023/08/22 02:16:30;;;;;;;5.97;5.37;;;;;;;24.81;74.47;157752.44;5045693;28;20478;-86
2023/08/22 02:18:57;;;;;;;7.50;6.30;;;;;;;24.84;75.23;157758.97;5056568;28;20462;-86
2023/08/22 02:21:24;;;;;;;7.80;7.00;;;;;;;24.88;76.22;157769.47;5046296;28;20458;-86
2023/08/22 02:23:50;;;;;;;7.43;6.60;;;;;;;24.87;76.69;157766.84;5008306;28;20806;-86
2023/08/22 02:26:17;;;;;;;7.57;6.93;;;;;;;24.82;77.36;157753.75;5010345;28;20467;-86
2023/08/22 02:28:44;;;;;;;8.10;7.40;;;;;;;24.78;77.99;157743.25;5029415;28;20439;-86
2023/08/22 02:31:11;;;;;;;7.90;7.20;;;;;;;24.70;78.38;157723.59;5025646;28;20768;-86
2023/08/22 02:33:38;;;;;;;8.07;7.37;;;;;;;24.62;79.19;157701.38;5031060;28;20555;-86
2023/08/22 02:36:05;;;;;;;7.60;6.90;;;;;;;24.56;79.66;157685.69;5051226;28;20473;-86
2023/08/22 02:38:32;;;;;;;7.47;6.77;;;;;;;24.53;80.21;157677.81;5050025;28;20439;-86
2023/08/22 02:40:58;;;;;;;7.90;7.20;;;;;;;24.51;80.53;157672.59;5008186;28;20474;-86
2023/08/22 02:43:25;;;;;;;7.80;7.00;;;;;;;24.51;80.74;157672.59;5033011;28;20565;-86
2023/08/22 02:45:51;;;;;;;7.90;7.20;;;;;;;24.53;80.75;157677.81;5054014;28;20793;-85
2023/08/22 02:48:20;;;;;;;8.67;7.10;;;;;;;24.43;81.03;157651.69;5041373;28;20444;-86
2023/08/22 02:50:49;;;;;;;8.77;7.70;;;;;;;24.42;80.73;157649.03;5061432;28;20492;-86
2023/08/22 02:53:16;;;;;;;8.00;7.30;;;;;;;24.37;81.32;157637.28;5060069;28;20803;-86
2023/08/22 02:55:42;;;;;;;9.00;6.53;;;;;;;24.27;81.22;157611.13;5012204;28;20456;-86
2023/08/22 02:58:09;;;;;;;8.27;7.50;;;;;;;24.20;81.97;157594.09;5042382;28;20439;-86
2023/08/22 03:00:36;;;;;;;9.70;8.70;;;;;;;24.17;83.61;157586.25;5026823;28;20466;-86
2023/08/22 03:03:03;;;;;;;8.87;7.97;;;;;;;24.16;83.53;157583.69;5026259;28;20700;-85
2023/08/22 03:05:32;;;;;;;8.97;8.07;;;;;;;24.13;83.86;157575.81;5055507;28;20468;-86
2023/08/22 03:07:59;;;;;;;9.40;8.40;;;;;;;24.10;84.65;157567.97;5030640;28;20484;-86
2023/08/22 03:10:26;;;;;;;8.60;7.80;;;;;;;24.07;84.52;157560.06;5014072;28;20439;-86
2023/08/22 03:12:53;;;;;;;9.33;7.77;;;;;;;24.07;84.49;157558.75;5026221;28;20475;-87
2023/08/22 03:15:19;;;;;;;8.70;7.90;;;;;;;24.03;84.64;157549.63;5049829;28;20534;-87
2023/08/22 03:17:46;;;;;;;8.80;7.83;;;;;;;24.02;84.33;157547.00;5056495;28;20454;-86
2023/08/22 03:20:13;;;;;;;8.73;7.93;;;;;;;24.03;84.00;157549.63;5032110;28;20450;-86
2023/08/22 03:22:41;;;;;;;8.30;7.30;;;;;;;24.05;83.68;157553.53;5039078;28;20534;-86
2023/08/22 03:25:08;;;;;;;12.23;7.43;;;;;;;24.06;84.08;157557.47;5034186;28;21076;-86
2023/08/22 03:27:37;;;;;;;7.90;7.10;;;;;;;24.05;84.05;157554.84;5005604;28;20463;-86
2023/08/22 03:30:04;;;;;;;8.13;7.43;;;;;;;24.08;84.24;157562.75;5017108;28;20447;-86
2023/08/22 03:32:34;;;;;;;7.43;6.73;;;;;;;24.06;84.24;157557.47;5033485;28;21107;-85
2023/08/22 03:35:03;;;;;;;7.73;7.07;;;;;;;24.07;83.87;157558.75;5016911;28;20447;-85
2023/08/22 03:37:30;;;;;;;9.07;7.30;;;;;;;24.00;83.60;157540.47;5046652;28;20459;-85
2023/08/22 03:39:59;;;;;;;7.97;7.10;;;;;;;23.92;83.67;157519.53;5042882;28;20460;-85
2023/08/22 03:42:25;;;;;;;8.13;7.33;;;;;;;23.79;84.15;157486.88;5058724;28;20455;-85
2023/08/22 03:44:57;;;;;;;8.63;7.70;;;;;;;23.67;84.60;157454.19;5048978;28;20457;-78
2023/08/22 03:47:23;;;;;;;7.90;7.10;;;;;;;23.60;84.72;157438.50;5031079;28;20473;-79
2023/08/22 03:49:50;;;;;;;8.20;7.40;;;;;;;23.52;85.25;157417.56;5022415;28;20440;-75
2023/08/22 03:52:17;;;;;;;8.10;7.30;;;;;;;23.47;85.77;157404.50;5031041;28;20890;-75
2023/08/22 03:54:43;;;;;;;10.30;7.57;;;;;;;23.45;86.19;157397.97;5023227;28;20487;-75
2023/08/22 03:57:11;;;;;;;8.30;7.53;;;;;;;23.42;86.26;157391.44;5029485;28;20455;-75
2023/08/22 03:59:38;;;;;;;7.53;6.80;;;;;;;23.40;86.99;157386.22;5027694;28;20517;-75
2023/08/22 04:02:04;;;;;;;7.33;6.70;;;;;;;23.37;86.36;157377.06;5019528;28;20452;-75
2023/08/22 04:04:31;;;;;;;7.77;7.00;;;;;;;23.37;85.85;157377.06;5012232;28;20478;-74
2023/08/22 04:06:58;;;;;;;8.80;7.33;;;;;;;23.32;86.33;157363.94;5028488;28;20458;-75
2023/08/22 04:09:24;;;;;;;7.83;7.03;;;;;;;23.30;85.87;157358.72;5048345;28;20830;-75
2023/08/22 04:11:51;;;;;;;7.90;7.20;;;;;;;23.35;85.84;157371.78;5011729;28;20455;-75
2023/08/22 04:14:19;;;;;;;8.30;6.57;;;;;;;23.34;85.64;157369.16;5047264;28;20485;-75
2023/08/22 04:16:46;;;;;;;7.73;7.13;;;;;;;23.29;85.50;157356.09;5045995;28;20546;-74
2023/08/22 04:19:12;;;;;;;8.33;7.07;;;;;;;23.26;86.48;157348.25;5013935;28;20467;-75
2023/08/22 04:21:39;;;;;;;8.03;6.97;;;;;;;23.22;86.40;157337.81;5052187;28;20739;-77
2023/08/22 04:24:06;;;;;;;7.60;6.90;;;;;;;23.21;86.82;157335.19;5047646;28;20557;-74
2023/08/22 04:26:33;;;;;;;8.10;7.30;;;;;;;23.16;86.67;157323.44;5010054;28;20585;-75
2023/08/22 04:28:59;;;;;;;8.07;7.13;;;;;;;23.16;86.88;157322.13;5047306;28;20494;-81
2023/08/22 04:31:27;;;;;;;10.60;7.27;;;;;;;23.16;87.23;157322.13;5026844;28;20959;-81
2023/08/22 04:33:54;;;;;;;7.73;6.90;;;;;;;23.15;87.57;157320.81;5052412;28;20883;-82
2023/08/22 04:36:21;;;;;;;9.03;8.20;;;;;;;23.13;87.77;157314.28;5018829;28;21070;-83
2023/08/22 04:38:49;;;;;;;8.80;6.80;;;;;;;23.08;88.78;157301.22;5024195;28;20459;-83
2023/08/22 04:41:17;;;;;;;9.03;8.13;;;;;;;23.03;88.98;157290.72;5010557;28;20471;-83
2023/08/22 04:44:16;;;;;;;7.67;6.97;;;;;;;23.00;89.61;157281.63;5017699;28;20448;-82
2023/08/22 04:46:44;;;;;;;8.30;7.60;;;;;;;23.06;89.08;157296.00;5014019;28;20943;-81
2023/08/22 04:49:11;;;;;;;7.87;7.27;;;;;;;23.06;88.71;157297.25;5039223;28;20538;-81
2023/08/22 04:51:37;;;;;;;8.10;7.30;;;;;;;23.03;88.46;157290.72;5054919;28;20536;-81
2023/08/22 04:54:04;;;;;;;8.47;7.57;;;;;;;23.00;88.87;157282.94;5006943;28;20494;-81
2023/08/22 04:56:31;;;;;;;8.80;7.20;;;;;;;22.98;89.48;157276.41;5054355;28;20617;-81
2023/08/22 04:58:58;;;;;;;8.60;7.43;;;;;;;23.04;89.38;157293.34;5007323;28;20458;-81
2023/08/22 05:01:24;;;;;;;7.87;7.17;;;;;;;23.07;89.13;157299.88;5038105;28;20497;-81
2023/08/22 05:03:52;;;;;;;9.07;7.27;;;;;;;23.08;89.46;157301.22;5055313;28;20459;-81
2023/08/22 05:06:19;;;;;;;7.83;7.07;;;;;;;23.10;89.28;157306.41;5049486;28;20463;-81
2023/08/22 05:08:45;;;;;;;8.27;7.47;;;;;;;23.10;89.22;157306.41;5004254;28;20455;-81
2023/08/22 05:11:14;;;;;;;7.57;6.77;;;;;;;23.12;89.47;157311.63;5019203;28;20459;-81
2023/08/22 05:13:40;;;;;;;8.13;7.43;;;;;;;23.15;89.40;157320.81;5034688;28;20477;-81
2023/08/22 05:16:07;;;;;;;11.40;7.10;;;;;;;23.17;89.45;157324.69;4997603;28;20454;-81
2023/08/22 05:18:35;;;;;;;8.10;7.40;;;;;;;23.21;89.32;157336.50;5066405;28;20532;-81
2023/08/22 05:21:03;;;;;;;9.60;8.70;;;;;;;23.24;89.21;157343.03;5048841;28;20455;-81
2023/08/22 05:23:29;;;;;;;9.13;7.37;;;;;;;23.30;89.74;157358.72;5035211;28;20804;-81
2023/08/22 05:25:56;;;;;;;8.53;7.73;;;;;;;23.37;89.86;157377.06;5065518;28;21001;-80
2023/08/22 05:28:23;;;;;;;12.10;8.77;;;;;;;23.45;89.44;157397.97;5063091;28;20455;-80
2023/08/22 05:30:50;;;;;;;9.63;8.00;;;;;;;23.57;89.26;157430.63;5013153;28;20821;-80
2023/08/22 05:33:16;;;;;;;9.10;8.20;;;;;;;23.81;88.11;157492.06;5006553;28;20481;-81
2023/08/22 05:35:43;;;;;;;9.97;8.97;;;;;;;24.07;87.71;157558.75;5035873;28;20477;-80
2023/08/22 05:38:11;;;;;;;9.63;8.07;;;;;;;24.33;85.96;157625.53;5001704;28;20992;-80
2023/08/22 05:40:38;;;;;;;8.23;7.50;;;;;;;24.58;84.03;157692.22;5066859;28;20457;-80
2023/08/22 05:43:07;;;;;;;10.40;8.30;;;;;;;24.81;83.67;157752.44;5014831;28;20532;-81
2023/08/22 05:45:33;;;;;;;10.53;8.30;;;;;;;25.04;82.15;157810.00;5053577;28;21046;-79
2023/08/22 05:48:00;;;;;;;8.00;7.30;;;;;;;25.24;81.81;157862.34;5020337;28;20458;-79
2023/08/22 05:50:27;;;;;;;8.60;7.80;;;;;;;25.44;81.19;157916.00;5004096;28;20462;-79
2023/08/22 05:52:54;;;;;;;9.73;6.93;;;;;;;25.64;79.82;157967.09;5033774;28;20488;-79
2023/08/22 05:55:22;;;;;;;8.10;7.40;;;;;;;25.79;78.78;158005.03;5045445;28;20883;-79
2023/08/22 05:57:48;;;;;;;8.80;8.10;;;;;;;26.01;77.96;158062.66;5017086;28;20454;-79
2023/08/22 06:00:16;;;;;;;8.80;7.73;;;;;;;26.15;77.80;158098.06;5063656;28;20478;-79
2023/08/22 06:02:53;;;;;;;8.30;7.60;;;;;;;26.27;76.88;158130.81;5016701;28;20988;-80
2023/08/22 06:05:20;;;;;;;11.50;7.47;;;;;;;26.49;76.78;158188.44;5020383;28;20495;-80
2023/08/22 06:07:46;;;;;;;8.93;8.10;;;;;;;26.68;75.42;158235.59;5052671;28;20897;-80
2023/08/22 06:10:13;;;;;;;8.50;7.10;;;;;;;26.85;74.87;158280.16;5053230;28;20500;-80
2023/08/22 06:12:41;;;;;;;7.80;7.10;;;;;;;26.89;74.46;158290.66;5004294;28;20467;-80
2023/08/22 06:15:09;;;;;;;7.87;7.10;;;;;;;26.99;73.46;158316.84;5021058;28;20478;-80
2023/08/22 06:17:37;;;;;;;8.13;7.33;;;;;;;27.12;73.54;158352.22;5022900;28;20466;-80
2023/08/22 06:20:07;;;;;;;8.30;7.60;;;;;;;27.32;72.68;158403.34;5035398;28;20459;-80
2023/08/22 06:22:34;;;;;;;12.20;8.03;;;;;;;27.46;72.00;158440.06;5054981;28;20470;-80
2023/08/22 06:25:04;;;;;;;8.20;7.50;;;;;;;27.62;71.42;158480.69;5037346;28;20437;-80
2023/08/22 06:27:31;;;;;;;9.00;8.10;;;;;;;27.64;70.77;158487.22;5039917;28;20900;-80
2023/08/22 06:30:01;;;;;;;9.57;8.67;;;;;;;27.69;70.20;158500.31;5047822;28;20450;-80
2023/08/22 06:32:29;;;;;;;8.60;7.90;;;;;;;27.89;71.44;158551.47;5057027;28;20497;-80
2023/08/22 06:34:59;;;;;;;10.97;8.83;;;;;;;28.11;69.76;158607.91;5066296;28;20474;-80
2023/08/22 06:37:25;;;;;;;9.10;8.17;;;;;;;28.28;68.02;158652.44;5068158;28;20459;-80
2023/08/22 06:39:53;;;;;;;8.60;7.90;;;;;;;28.40;68.05;158683.94;5007048;28;20450;-80
2023/08/22 06:42:20;;;;;;;9.30;8.40;;;;;;;28.53;67.34;158716.72;5053619;28;20454;-80
2023/08/22 06:44:50;;;;;;;8.87;8.07;;;;;;;28.60;67.76;158736.38;5053249;28;20443;-80
2023/08/22 06:47:18;;;;;;;8.07;7.37;;;;;;;28.70;67.60;158762.66;5053552;28;20458;-80
2023/08/22 06:49:45;;;;;;;8.60;7.80;;;;;;;28.79;67.06;158784.94;5067003;28;20447;-80
2023/08/22 06:52:12;;;;;;;11.57;8.80;;;;;;;28.84;65.39;158799.38;5052937;28;20593;-80
2023/08/22 06:54:38;;;;;;;8.83;7.50;;;;;;;28.88;65.71;158809.91;5067620;28;20475;-80
2023/08/22 06:57:05;;;;;;;8.60;7.80;;;;;;;28.89;66.25;158812.50;5066703;28;20512;-80
2023/08/22 06:59:31;;;;;;;7.57;6.80;;;;;;;28.91;66.37;158816.47;5070034;28;20447;-80
2023/08/22 07:01:59;;;;;;;9.70;7.70;;;;;;;29.04;65.34;158849.25;5049180;28;20459;-80
2023/08/22 07:04:27;;;;;;;8.47;7.77;;;;;;;29.16;65.69;158880.69;5037028;28;20451;-81
2023/08/22 07:06:54;;;;;;;8.23;7.43;;;;;;;29.23;65.34;158899.16;5065894;28;20453;-81
2023/08/22 07:09:20;;;;;;;8.47;7.73;;;;;;;29.25;64.10;158905.72;5053919;28;20511;-81
2023/08/22 07:11:47;;;;;;;10.93;7.47;;;;;;;29.33;62.65;158925.38;5035424;28;21149;-81
2023/08/22 07:14:14;;;;;;;7.23;6.57;;;;;;;29.55;61.99;158983.09;5051191;28;21008;-81
2023/08/22 07:16:41;;;;;;;7.57;6.87;;;;;;;29.75;62.55;159034.28;5052596;28;20461;-81
2023/08/22 07:19:07;;;;;;;8.60;6.70;;;;;;;29.89;63.19;159072.38;5051071;28;20848;-82
2023/08/22 07:21:35;;;;;;;9.73;7.60;;;;;;;30.06;61.17;159115.69;5067828;28;20454;-82
2023/08/22 07:24:03;;;;;;;7.80;7.17;;;;;;;30.32;61.10;159182.63;5019686;28;20470;-81
2023/08/22 07:26:29;;;;;;;7.87;7.07;;;;;;;30.49;61.36;159227.34;5067173;28;20556;-81
2023/08/22 07:28:56;;;;;;;7.43;6.83;;;;;;;30.52;61.48;159236.53;5063273;28;20999;-81
2023/08/22 07:31:22;;;;;;;7.37;6.67;;;;;;;30.61;60.50;159258.81;5032323;28;20460;-81
2023/08/22 07:33:49;;;;;;;7.13;6.60;;;;;;;30.61;59.94;159258.81;5065011;28;21074;-82
2023/08/22 07:36:19;;;;;;;11.40;7.70;;;;;;;30.78;60.68;159303.50;5005948;28;20485;-81
2023/08/22 07:38:48;;;;;;;9.13;7.87;;;;;;;30.82;60.87;159312.69;5065651;28;21859;-81
2023/08/22 07:41:14;;;;;;;7.47;6.77;;;;;;;30.85;59.98;159321.84;5065358;28;20462;-82
2023/08/22 07:43:41;;;;;;;7.33;6.73;;;;;;;31.08;60.14;159381.03;5065695;28;20823;-82
2023/08/22 07:46:07;;;;;;;7.43;6.73;;;;;;;31.17;59.81;159404.66;5021085;28;20549;-82
2023/08/22 07:48:34;;;;;;;8.40;7.60;;;;;;;31.39;57.83;159462.47;5070478;28;20478;-82
2023/08/22 07:51:01;;;;;;;9.00;7.03;;;;;;;31.62;56.33;159521.59;5070034;28;20457;-81
2023/08/22 07:53:28;;;;;;;7.40;6.80;;;;;;;31.68;56.27;159538.72;5037008;28;20891;-82
2023/08/22 07:55:58;;;;;;;7.13;6.53;;;;;;;31.70;56.16;159542.63;5053809;28;20457;-81
2023/08/22 07:58:25;;;;;;;8.03;7.33;;;;;;;31.76;55.57;159558.41;5068551;28;20530;-81
2023/08/22 08:00:51;;;;;;;7.80;7.23;;;;;;;31.70;55.78;159542.63;5032547;28;20607;-81
2023/08/22 08:03:18;;;;;;;7.10;6.40;;;;;;;31.57;56.07;159509.78;5070298;28;20471;-81
2023/08/22 08:05:45;;;;;;;7.50;6.80;;;;;;;31.27;54.90;159430.91;5053395;28;20435;-81
2023/08/22 08:08:11;;;;;;;7.03;6.47;;;;;;;31.17;57.54;159405.97;5069932;28;20511;-81
2023/08/22 08:10:38;;;;;;;7.80;7.10;;;;;;;31.23;57.10;159420.41;5067834;28;20515;-82
2023/08/22 08:13:06;;;;;;;6.90;6.30;;;;;;;31.46;55.14;159480.88;5069355;28;20454;-81
2023/08/22 08:15:33;;;;;;;8.20;7.50;;;;;;;31.52;54.87;159496.66;5070258;28;20497;-81
2023/08/22 08:18:01;;;;;;;9.93;6.90;;;;;;;31.48;56.69;159484.84;5068787;28;20458;-81
2023/08/22 08:20:28;;;;;;;8.43;7.73;;;;;;;31.64;56.17;159526.91;5057360;28;20574;-81
2023/08/22 08:22:54;;;;;;;10.17;7.10;;;;;;;31.70;55.91;159542.63;5024333;28;20462;-82
2023/08/22 08:25:21;;;;;;;8.10;7.40;;;;;;;31.79;54.44;159567.63;5036951;28;21020;-81
2023/08/22 08:27:48;;;;;;;8.53;7.83;;;;;;;31.74;54.77;159553.16;5049390;28;20478;-82
2023/08/22 08:30:16;;;;;;;7.27;6.67;;;;;;;31.74;54.35;159553.16;5024368;28;20450;-82
2023/08/22 08:32:42;;;;;;;10.50;8.17;;;;;;;31.71;54.56;159545.28;5035766;28;20446;-81
2023/08/22 08:35:12;;;;;;;7.47;6.73;;;;;;;31.75;54.33;159557.09;5051424;28;20497;-82
2023/08/22 08:37:41;;;;;;;8.70;7.97;;;;;;;31.94;54.70;159607.03;5053206;28;20492;-81
2023/08/22 08:40:09;;;;;;;8.53;7.83;;;;;;;31.69;54.39;159540.03;5070601;28;20534;-81
2023/08/22 08:42:37;;;;;;;10.33;8.17;;;;;;;31.53;54.88;159499.31;5056268;28;20486;-81
2023/08/22 08:45:04;;;;;;;8.10;7.30;;;;;;;31.53;55.10;159498.00;5034742;28;20446;-82
2023/08/22 08:47:32;;;;;;;8.40;7.60;;;;;;;31.77;55.60;159561.06;5038111;28;21188;-83
2023/08/22 08:50:00;;;;;;;9.00;8.10;;;;;;;31.98;55.86;159616.25;5055870;28;21091;-81
2023/08/22 08:52:27;;;;;;;10.97;8.80;;;;;;;32.00;54.01;159621.53;5054627;28;20579;-82
2023/08/22 08:54:54;;;;;;;9.40;8.50;;;;;;;31.92;54.46;159601.78;5066031;28;20982;-81
2023/08/22 08:57:21;;;;;;;9.93;8.63;;;;;;;31.80;55.13;159568.91;5018988;28;20451;-81
2023/08/22 08:59:48;;;;;;;8.90;8.20;;;;;;;31.64;56.17;159528.16;5070044;28;20449;-81
2023/08/22 09:02:17;;;;;;;11.47;8.30;;;;;;;31.99;55.73;159618.84;5069322;28;20462;-81
2023/08/22 09:04:44;;;;;;;11.00;8.70;;;;;;;31.97;54.68;159613.59;5019649;28;20454;-81
2023/08/22 09:07:11;;;;;;;11.80;8.90;;;;;;;31.96;54.10;159609.69;5055930;28;20949;-81
2023/08/22 09:09:38;;;;;;;9.40;8.43;;;;;;;31.91;54.36;159599.13;5067065;28;20553;-81
2023/08/22 09:12:07;;;;;;;9.70;8.30;;;;;;;31.93;54.46;159603.09;5065881;28;20462;-81
2023/08/22 09:14:36;;;;;;;8.80;8.00;;;;;;;31.99;54.67;159617.50;5065559;28;20485;-81
2023/08/22 09:17:03;;;;;;;8.30;7.60;;;;;;;32.14;53.43;159658.34;5067638;28;20471;-81
2023/08/22 09:19:32;;;;;;;8.07;7.30;;;;;;;32.22;54.40;159679.31;5068669;28;20470;-81
2023/08/22 09:22:02;;;;;;;8.63;7.67;;;;;;;32.32;53.37;159704.31;5047897;28;20450;-81
2023/08/22 09:24:29;;;;;;;7.93;7.30;;;;;;;32.45;53.40;159739.81;5016963;28;20456;-82
2023/08/22 09:26:56;;;;;;;8.00;7.30;;;;;;;32.18;53.06;159668.84;5054431;28;20450;-81
2023/08/22 09:29:27;;;;;;;7.53;6.80;;;;;;;32.16;53.35;159662.28;5034245;28;20466;-81
2023/08/22 09:31:57;;;;;;;8.57;7.87;;;;;;;32.24;54.26;159683.28;5068719;28;20465;-81
2023/08/22 09:34:24;;;;;;;9.83;7.87;;;;;;;32.30;53.84;159700.34;5054395;28;20478;-82
2023/08/22 09:36:52;;;;;;;8.53;7.73;;;;;;;32.36;53.76;159714.81;5068970;28;20459;-81
2023/08/22 09:39:21;;;;;;;8.67;7.70;;;;;;;32.42;53.80;159731.94;5067315;28;20460;-81
2023/08/22 09:41:51;;;;;;;6.33;5.83;;;;;;;32.22;53.29;159679.31;5064977;28;20538;-81
2023/08/22 09:44:21;;;;;;;8.57;7.80;;;;;;;31.88;54.68;159589.91;5059477;28;20534;-81
2023/08/22 09:46:49;;;;;;;7.07;6.37;;;;;;;31.44;53.52;159474.28;5071328;28;20450;-81
2023/08/22 09:49:16;;;;;;;8.27;6.90;;;;;;;31.28;54.85;159434.88;5020191;28;20460;-81
2023/08/22 09:51:44;;;;;;;7.50;6.90;;;;;;;31.22;56.11;159419.09;5058151;28;20461;-81
2023/08/22 09:54:14;;;;;;;6.90;6.30;;;;;;;31.32;55.58;159445.34;5069737;28;20489;-81
2023/08/22 09:56:48;;;;;;;6.83;6.23;;;;;;;31.50;55.70;159490.09;5050671;28;20534;-89
2023/08/22 09:59:15;;;;;;;7.80;7.10;;;;;;;31.66;53.78;159532.16;5038387;28;21039;-90
2023/08/22 10:01:43;;;;;;;7.70;7.10;;;;;;;31.57;54.91;159509.78;5037475;28;20801;-89
2023/08/22 10:04:12;;;;;;;10.33;6.67;;;;;;;31.58;55.03;159511.13;5024345;28;20478;-88
2023/08/22 10:06:39;;;;;;;7.47;6.80;;;;;;;31.60;54.97;159516.38;5033177;28;20446;-88
2023/08/22 10:09:08;;;;;;;7.67;7.03;;;;;;;31.65;55.20;159529.50;5067574;28;20801;-89
2023/08/22 10:11:39;;;;;;;8.00;7.27;;;;;;;31.83;54.55;159576.78;5056300;28;20454;-89
2023/08/22 10:14:08;;;;;;;8.20;7.03;;;;;;;31.83;54.11;159578.09;5057732;28;20463;-89
2023/08/22 10:16:34;;;;;;;6.43;5.83;;;;;;;31.86;53.18;159584.69;5057466;28;20433;-90
2023/08/22 10:19:02;;;;;;;6.50;5.90;;;;;;;31.78;53.36;159563.66;5069042;28;20468;-89
2023/08/22 10:21:32;;;;;;;7.00;6.30;;;;;;;31.84;53.80;159579.44;5065318;28;20494;-90
2023/08/22 10:24:02;;;;;;;7.30;6.10;;;;;;;31.88;52.67;159591.25;5069228;28;21056;-90
2023/08/22 10:26:46;;;;;;;7.00;6.30;;;;;;;31.94;53.47;159605.69;5022655;28;20461;-90
2023/08/22 10:29:15;;;;;;;6.37;5.87;;;;;;;31.97;52.82;159613.59;5007077;28;20461;-89
2023/08/22 10:32:19;;;;;;;7.20;6.60;;;;;;;31.93;53.53;159604.38;5023386;28;20447;-89
2023/08/22 10:35:27;;;;;;;7.40;6.70;;;;;;;31.88;53.04;159591.25;5008231;28;20561;-89
2023/08/22 10:37:55;;;;;;;6.77;6.20;;;;;;;31.71;53.20;159545.28;5069794;28;20455;-89
2023/08/22 10:40:30;;;;;;;6.43;5.93;;;;;;;31.57;54.08;159508.47;5025693;28;20537;-90
2023/08/22 10:43:08;;;;;;;6.40;5.90;;;;;;;31.60;53.86;159516.38;5050846;28;21039;-89
2023/08/22 10:45:44;;;;;;;7.87;6.67;;;;;;;31.63;54.45;159524.25;5022431;28;20442;-90
2023/08/22 10:48:12;;;;;;;7.50;6.60;;;;;;;31.71;54.15;159546.59;5007810;28;20455;-90
2023/08/22 10:50:42;;;;;;;6.90;6.30;;;;;;;31.76;54.54;159558.41;5071676;28;20765;-89
2023/08/22 10:53:20;;;;;;;7.50;6.80;;;;;;;31.85;55.42;159582.06;5053833;28;20560;-89
2023/08/22 10:55:47;;;;;;;6.97;6.40;;;;;;;31.98;52.60;159614.91;5066861;28;20549;-90
2023/08/22 10:58:36;;;;;;;7.70;6.90;;;;;;;31.96;52.89;159610.94;5069044;28;20459;-90
2023/08/22 11:01:06;;;;;;;7.07;6.37;;;;;;;31.90;52.95;159595.22;5055673;28;20499;-89
2023/08/22 11:03:32;;;;;;;7.57;6.87;;;;;;;31.92;53.22;159600.47;5018475;28;21255;-90
2023/08/22 11:05:59;;;;;;;7.83;6.47;;;;;;;31.98;53.60;159616.25;5069999;28;20514;-90
2023/08/22 11:08:28;;;;;;;7.00;6.30;;;;;;;32.07;53.82;159639.91;5023956;28;20455;-89
2023/08/22 11:10:58;;;;;;;7.30;6.70;;;;;;;32.09;51.12;159645.16;5069568;28;20923;-90
2023/08/22 11:13:36;;;;;;;6.80;6.20;;;;;;;32.06;50.89;159637.31;5053213;28;20820;-90
2023/08/22 11:16:03;;;;;;;7.20;6.50;;;;;;;31.98;51.49;159616.25;5067953;28;20523;-90
2023/08/22 11:18:31;;;;;;;7.00;6.13;;;;;;;31.89;52.50;159592.56;5056526;28;20459;-90
2023/08/22 11:20:58;;;;;;;7.43;6.70;;;;;;;31.86;52.26;159584.69;5067297;28;20540;-90
2023/08/22 11:23:24;;;;;;;7.10;6.43;;;;;;;31.53;53.06;159498.00;5025842;28;20470;-89
2023/08/22 11:25:51;;;;;;;8.20;6.30;;;;;;;31.49;53.97;159488.78;5035756;28;20466;-90
2023/08/22 11:28:18;;;;;;;6.70;6.10;;;;;;;31.52;53.10;159495.34;5038707;28;20453;-89